Overview Statistics Trail Chart Weather Telemetry Raw packets
 

This is the latest recevied weather packets stored in our database for station/object WX5KDM. If no packets are shown the sender has not sent any weather packets the latest 10 day(s).

<< 21 22 23 24 25 26 27 >>
Time Temp. Humidity Pressure Rain* Wind** Luminosity Snow
1788476522 31.11° C 63% 1014.6 hPa 0 mm - - -
1788476218 31.11° C 63% 1014.8 hPa 0 mm - - -
1788475914 31.11° C 62% 1014.8 hPa 0 mm - - -
1788475610 31.67° C 61% 1014.7 hPa 0 mm - - -
1788475306 31.67° C 61% 1014.7 hPa 0 mm - - -
1788475001 34.44° C 54% 1014.6 hPa 0 mm - - -
1788474700 35° C 53% 1014.4 hPa 0 mm - - -
1788474395 36.11° C 51% 1014.2 hPa 0 mm - - -
1788474094 37.22° C 47% 1014.1 hPa 0 mm - - -
1788473789 37.78° C 42% 1013.9 hPa 0 mm - - -
1788473487 37.78° C 41% 1013.8 hPa 0 mm - - -
1788473186 37.22° C 41% 1013.7 hPa 0 mm - - -
1788472887 37.78° C 41% 1013.7 hPa 0 mm - - -
1788472585 37.22° C 43% 1013.5 hPa 0 mm - - -
1788472280 37.22° C 41% 1013.5 hPa 0 mm - - -
1788471979 37.78° C 41% 1013.5 hPa 0 mm - - -
1788471675 38.33° C 41% 1013.4 hPa 0 mm - - -
1788471369 39.44° C 39% 1013.7 hPa 0 mm - - -
1788471065 38.89° C 40% 1014 hPa 0 mm - - -
1788470761 38.89° C 39% 1013.7 hPa 0 mm - - -
1788470456 38.89° C 39% 1013.9 hPa 0 mm - - -
1788470151 37.78° C 39% 1014 hPa 0 mm - - -
1788469848 38.33° C 40% 1013.8 hPa 0 mm - - -
1788469542 38.33° C 40% 1013.9 hPa 0 mm - - -
1788469238 37.78° C 42% 1014.1 hPa 0 mm - - -

* Rain latest hour (hover to see other rain measurements)
** Current wind speed in m/s (hover to see current wind gust speed)